sensor_id;sensor_type;location;lat;lon;timestamp;P1;durP1;ratioP1;P2;durP2;ratioP2
82344;SDS011;72653;56.882;60.614;2023-09-18T00:00:53;11.85;;;8.27;;
82344;SDS011;72653;56.882;60.614;2023-09-18T00:03:19;13.23;;;8.82;;
82344;SDS011;72653;56.882;60.614;2023-09-18T00:05:46;26.30;;;8.32;;
82344;SDS011;72653;56.882;60.614;2023-09-18T00:08:13;15.73;;;9.07;;
82344;SDS011;72653;56.882;60.614;2023-09-18T00:10:39;12.60;;;8.32;;
82344;SDS011;72653;56.882;60.614;2023-09-18T00:13:04;9.50;;;7.65;;
82344;SDS011;72653;56.882;60.614;2023-09-18T00:15:30;15.48;;;8.07;;
82344;SDS011;72653;56.882;60.614;2023-09-18T00:17:56;12.30;;;9.15;;
82344;SDS011;72653;56.882;60.614;2023-09-18T00:20:22;28.27;;;10.48;;
82344;SDS011;72653;56.882;60.614;2023-09-18T00:22:53;19.90;;;7.68;;
82344;SDS011;72653;56.882;60.614;2023-09-18T00:25:19;42.38;;;9.95;;
82344;SDS011;72653;56.882;60.614;2023-09-18T00:27:44;11.23;;;9.02;;
82344;SDS011;72653;56.882;60.614;2023-09-18T00:30:10;25.88;;;8.45;;
82344;SDS011;72653;56.882;60.614;2023-09-18T00:32:37;11.82;;;8.68;;
82344;SDS011;72653;56.882;60.614;2023-09-18T00:35:02;12.88;;;8.07;;
82344;SDS011;72653;56.882;60.614;2023-09-18T00:37:28;24.58;;;9.05;;
82344;SDS011;72653;56.882;60.614;2023-09-18T00:39:54;17.42;;;9.68;;
82344;SDS011;72653;56.882;60.614;2023-09-18T00:42:20;10.35;;;7.65;;
82344;SDS011;72653;56.882;60.614;2023-09-18T00:44:48;15.75;;;8.10;;
82344;SDS011;72653;56.882;60.614;2023-09-18T00:47:13;22.02;;;10.18;;
82344;SDS011;72653;56.882;60.614;2023-09-18T00:49:40;20.80;;;9.43;;
82344;SDS011;72653;56.882;60.614;2023-09-18T00:52:07;16.17;;;10.77;;
82344;SDS011;72653;56.882;60.614;2023-09-18T00:54:33;28.02;;;10.43;;
82344;SDS011;72653;56.882;60.614;2023-09-18T00:57:00;13.20;;;9.45;;
82344;SDS011;72653;56.882;60.614;2023-09-18T00:59:26;18.55;;;10.43;;
82344;SDS011;72653;56.882;60.614;2023-09-18T01:01:51;27.20;;;11.32;;
82344;SDS011;72653;56.882;60.614;2023-09-18T01:04:17;14.40;;;8.88;;
82344;SDS011;72653;56.882;60.614;2023-09-18T01:06:43;13.15;;;8.82;;
82344;SDS011;72653;56.882;60.614;2023-09-18T01:09:09;17.88;;;8.65;;
82344;SDS011;72653;56.882;60.614;2023-09-18T01:11:43;11.93;;;8.35;;
82344;SDS011;72653;56.882;60.614;2023-09-18T01:14:14;18.45;;;9.10;;
82344;SDS011;72653;56.882;60.614;2023-09-18T01:16:58;9.48;;;6.72;;
82344;SDS011;72653;56.882;60.614;2023-09-18T01:22:03;24.38;;;12.50;;
82344;SDS011;72653;56.882;60.614;2023-09-18T01:24:29;17.73;;;10.38;;
82344;SDS011;72653;56.882;60.614;2023-09-18T01:26:54;15.23;;;9.73;;
82344;SDS011;72653;56.882;60.614;2023-09-18T01:29:20;19.35;;;8.40;;
82344;SDS011;72653;56.882;60.614;2023-09-18T01:31:46;13.27;;;8.38;;
82344;SDS011;72653;56.882;60.614;2023-09-18T01:34:14;12.38;;;9.32;;
82344;SDS011;72653;56.882;60.614;2023-09-18T01:36:42;21.35;;;9.70;;
82344;SDS011;72653;56.882;60.614;2023-09-18T01:39:08;24.02;;;9.57;;
82344;SDS011;72653;56.882;60.614;2023-09-18T01:41:35;12.60;;;8.63;;
82344;SDS011;72653;56.882;60.614;2023-09-18T01:44:01;16.25;;;8.07;;
82344;SDS011;72653;56.882;60.614;2023-09-18T01:46:27;10.23;;;8.75;;
82344;SDS011;72653;56.882;60.614;2023-09-18T01:48:53;14.57;;;7.63;;
82344;SDS011;72653;56.882;60.614;2023-09-18T01:51:19;9.70;;;7.13;;
82344;SDS011;72653;56.882;60.614;2023-09-18T01:53:44;12.98;;;9.40;;
82344;SDS011;72653;56.882;60.614;2023-09-18T01:56:10;11.60;;;8.75;;
82344;SDS011;72653;56.882;60.614;2023-09-18T01:58:36;12.85;;;7.75;;
82344;SDS011;72653;56.882;60.614;2023-09-18T02:01:01;27.02;;;11.93;;
82344;SDS011;72653;56.882;60.614;2023-09-18T02:03:28;17.95;;;10.57;;
82344;SDS011;72653;56.882;60.614;2023-09-18T02:05:53;26.98;;;8.57;;
82344;SDS011;72653;56.882;60.614;2023-09-18T02:08:19;16.30;;;10.82;;
82344;SDS011;72653;56.882;60.614;2023-09-18T02:10:45;10.35;;;8.18;;
82344;SDS011;72653;56.882;60.614;2023-09-18T02:13:10;25.13;;;11.68;;
82344;SDS011;72653;56.882;60.614;2023-09-18T02:15:37;18.95;;;10.77;;
82344;SDS011;72653;56.882;60.614;2023-09-18T02:18:02;15.65;;;10.73;;
82344;SDS011;72653;56.882;60.614;2023-09-18T02:20:28;22.63;;;9.63;;
82344;SDS011;72653;56.882;60.614;2023-09-18T02:22:54;15.13;;;9.75;;
82344;SDS011;72653;56.882;60.614;2023-09-18T02:25:19;13.73;;;9.38;;
82344;SDS011;72653;56.882;60.614;2023-09-18T02:27:45;12.85;;;9.70;;
82344;SDS011;72653;56.882;60.614;2023-09-18T02:30:11;15.10;;;9.50;;
82344;SDS011;72653;56.882;60.614;2023-09-18T02:32:37;29.23;;;9.20;;
82344;SDS011;72653;56.882;60.614;2023-09-18T02:35:02;32.90;;;9.32;;
82344;SDS011;72653;56.882;60.614;2023-09-18T02:37:29;18.55;;;9.77;;
82344;SDS011;72653;56.882;60.614;2023-09-18T02:39:55;15.48;;;9.60;;
82344;SDS011;72653;56.882;60.614;2023-09-18T02:42:20;13.73;;;7.93;;
82344;SDS011;72653;56.882;60.614;2023-09-18T02:44:46;14.20;;;8.75;;
82344;SDS011;72653;56.882;60.614;2023-09-18T02:47:12;11.73;;;8.85;;
82344;SDS011;72653;56.882;60.614;2023-09-18T02:49:37;15.68;;;9.48;;
82344;SDS011;72653;56.882;60.614;2023-09-18T02:52:03;18.40;;;10.07;;
82344;SDS011;72653;56.882;60.614;2023-09-18T02:54:29;18.25;;;8.50;;
82344;SDS011;72653;56.882;60.614;2023-09-18T02:56:55;30.33;;;13.75;;
82344;SDS011;72653;56.882;60.614;2023-09-18T02:59:20;8.00;;;7.28;;
82344;SDS011;72653;56.882;60.614;2023-09-18T03:01:46;23.13;;;9.35;;
82344;SDS011;72653;56.882;60.614;2023-09-18T03:04:12;23.00;;;10.57;;
82344;SDS011;72653;56.882;60.614;2023-09-18T03:06:38;13.40;;;10.70;;
82344;SDS011;72653;56.882;60.614;2023-09-18T03:09:04;18.35;;;12.32;;
82344;SDS011;72653;56.882;60.614;2023-09-18T03:11:29;15.82;;;9.52;;
82344;SDS011;72653;56.882;60.614;2023-09-18T03:13:55;16.95;;;8.70;;
82344;SDS011;72653;56.882;60.614;2023-09-18T03:16:21;16.67;;;9.90;;
82344;SDS011;72653;56.882;60.614;2023-09-18T03:18:46;19.27;;;11.00;;
82344;SDS011;72653;56.882;60.614;2023-09-18T03:21:12;25.50;;;9.45;;
82344;SDS011;72653;56.882;60.614;2023-09-18T03:23:38;18.40;;;8.55;;
82344;SDS011;72653;56.882;60.614;2023-09-18T03:26:03;21.77;;;8.52;;
82344;SDS011;72653;56.882;60.614;2023-09-18T03:28:29;11.68;;;7.97;;
82344;SDS011;72653;56.882;60.614;2023-09-18T03:30:55;28.48;;;8.88;;
82344;SDS011;72653;56.882;60.614;2023-09-18T03:33:21;10.68;;;8.68;;
82344;SDS011;72653;56.882;60.614;2023-09-18T03:35:47;16.90;;;8.85;;
82344;SDS011;72653;56.882;60.614;2023-09-18T03:38:14;28.50;;;12.38;;
82344;SDS011;72653;56.882;60.614;2023-09-18T03:40:40;13.73;;;10.10;;
82344;SDS011;72653;56.882;60.614;2023-09-18T03:43:06;20.38;;;9.38;;
82344;SDS011;72653;56.882;60.614;2023-09-18T03:45:32;19.33;;;11.98;;
82344;SDS011;72653;56.882;60.614;2023-09-18T03:47:58;19.73;;;9.10;;
82344;SDS011;72653;56.882;60.614;2023-09-18T03:50:24;18.98;;;9.23;;
82344;SDS011;72653;56.882;60.614;2023-09-18T03:52:49;15.45;;;9.45;;
82344;SDS011;72653;56.882;60.614;2023-09-18T03:55:15;25.73;;;12.63;;
82344;SDS011;72653;56.882;60.614;2023-09-18T03:57:41;20.23;;;9.40;;
82344;SDS011;72653;56.882;60.614;2023-09-18T04:00:07;13.05;;;9.15;;
82344;SDS011;72653;56.882;60.614;2023-09-18T04:02:33;32.97;;;9.48;;
82344;SDS011;72653;56.882;60.614;2023-09-18T04:05:00;19.73;;;10.40;;
82344;SDS011;72653;56.882;60.614;2023-09-18T04:07:26;23.70;;;13.15;;
82344;SDS011;72653;56.882;60.614;2023-09-18T04:09:51;40.63;;;12.43;;
82344;SDS011;72653;56.882;60.614;2023-09-18T04:12:17;17.45;;;9.63;;
82344;SDS011;72653;56.882;60.614;2023-09-18T04:14:43;27.55;;;9.32;;
82344;SDS011;72653;56.882;60.614;2023-09-18T04:17:09;26.95;;;9.70;;
82344;SDS011;72653;56.882;60.614;2023-09-18T04:19:34;16.65;;;9.05;;
82344;SDS011;72653;56.882;60.614;2023-09-18T04:22:00;15.98;;;7.22;;
82344;SDS011;72653;56.882;60.614;2023-09-18T04:24:26;11.85;;;7.68;;
82344;SDS011;72653;56.882;60.614;2023-09-18T04:26:52;9.52;;;7.28;;
82344;SDS011;72653;56.882;60.614;2023-09-18T04:29:18;18.13;;;8.40;;
82344;SDS011;72653;56.882;60.614;2023-09-18T04:31:44;17.73;;;10.45;;
82344;SDS011;72653;56.882;60.614;2023-09-18T04:34:10;18.42;;;9.05;;
82344;SDS011;72653;56.882;60.614;2023-09-18T04:36:36;22.98;;;10.35;;
82344;SDS011;72653;56.882;60.614;2023-09-18T04:39:02;33.72;;;9.95;;
82344;SDS011;72653;56.882;60.614;2023-09-18T04:41:30;17.10;;;8.13;;
82344;SDS011;72653;56.882;60.614;2023-09-18T04:43:55;18.08;;;9.80;;
82344;SDS011;72653;56.882;60.614;2023-09-18T04:46:21;13.85;;;8.57;;
82344;SDS011;72653;56.882;60.614;2023-09-18T04:48:47;17.48;;;11.02;;
82344;SDS011;72653;56.882;60.614;2023-09-18T04:51:12;9.65;;;7.55;;
82344;SDS011;72653;56.882;60.614;2023-09-18T04:53:38;26.95;;;9.45;;
82344;SDS011;72653;56.882;60.614;2023-09-18T04:56:04;19.40;;;9.68;;
82344;SDS011;72653;56.882;60.614;2023-09-18T04:58:30;39.75;;;12.00;;
82344;SDS011;72653;56.882;60.614;2023-09-18T05:00:56;20.73;;;9.77;;
82344;SDS011;72653;56.882;60.614;2023-09-18T05:03:22;22.05;;;10.85;;
82344;SDS011;72653;56.882;60.614;2023-09-18T05:05:48;19.63;;;8.52;;
82344;SDS011;72653;56.882;60.614;2023-09-18T05:08:15;32.25;;;8.27;;
82344;SDS011;72653;56.882;60.614;2023-09-18T05:10:41;16.77;;;8.98;;
82344;SDS011;72653;56.882;60.614;2023-09-18T05:13:09;20.20;;;11.40;;
82344;SDS011;72653;56.882;60.614;2023-09-18T05:15:35;14.23;;;8.23;;
82344;SDS011;72653;56.882;60.614;2023-09-18T05:18:01;10.93;;;7.32;;
82344;SDS011;72653;56.882;60.614;2023-09-18T05:20:27;15.45;;;9.30;;
82344;SDS011;72653;56.882;60.614;2023-09-18T05:22:54;27.50;;;9.55;;
82344;SDS011;72653;56.882;60.614;2023-09-18T05:25:20;14.40;;;9.13;;
82344;SDS011;72653;56.882;60.614;2023-09-18T05:28:00;22.27;;;9.05;;
82344;SDS011;72653;56.882;60.614;2023-09-18T05:30:27;11.13;;;7.95;;
82344;SDS011;72653;56.882;60.614;2023-09-18T05:32:53;10.65;;;7.68;;
82344;SDS011;72653;56.882;60.614;2023-09-18T05:35:19;17.08;;;7.75;;
82344;SDS011;72653;56.882;60.614;2023-09-18T05:37:46;15.05;;;9.18;;
82344;SDS011;72653;56.882;60.614;2023-09-18T05:40:12;17.35;;;7.60;;
82344;SDS011;72653;56.882;60.614;2023-09-18T05:42:39;30.85;;;8.48;;
82344;SDS011;72653;56.882;60.614;2023-09-18T05:45:05;28.58;;;7.45;;
82344;SDS011;72653;56.882;60.614;2023-09-18T05:47:32;8.93;;;6.57;;
82344;SDS011;72653;56.882;60.614;2023-09-18T05:49:57;10.40;;;6.60;;
82344;SDS011;72653;56.882;60.614;2023-09-18T05:52:23;11.75;;;7.00;;
82344;SDS011;72653;56.882;60.614;2023-09-18T05:54:50;20.45;;;8.25;;
82344;SDS011;72653;56.882;60.614;2023-09-18T05:57:16;13.90;;;7.00;;
82344;SDS011;72653;56.882;60.614;2023-09-18T05:59:42;13.65;;;7.60;;
82344;SDS011;72653;56.882;60.614;2023-09-18T06:02:10;13.05;;;5.80;;
82344;SDS011;72653;56.882;60.614;2023-09-18T06:04:36;22.15;;;7.53;;
82344;SDS011;72653;56.882;60.614;2023-09-18T06:07:02;15.02;;;8.07;;
82344;SDS011;72653;56.882;60.614;2023-09-18T06:09:28;13.65;;;6.95;;
82344;SDS011;72653;56.882;60.614;2023-09-18T06:11:54;20.00;;;6.03;;
82344;SDS011;72653;56.882;60.614;2023-09-18T06:14:19;9.73;;;6.50;;
82344;SDS011;72653;56.882;60.614;2023-09-18T06:16:45;10.10;;;6.47;;
82344;SDS011;72653;56.882;60.614;2023-09-18T06:19:11;11.43;;;7.25;;
82344;SDS011;72653;56.882;60.614;2023-09-18T06:21:36;18.13;;;7.55;;
82344;SDS011;72653;56.882;60.614;2023-09-18T06:24:02;15.18;;;7.72;;
82344;SDS011;72653;56.882;60.614;2023-09-18T06:26:28;14.32;;;6.32;;
82344;SDS011;72653;56.882;60.614;2023-09-18T06:28:53;14.55;;;6.00;;
82344;SDS011;72653;56.882;60.614;2023-09-18T06:31:20;9.23;;;4.95;;
82344;SDS011;72653;56.882;60.614;2023-09-18T06:33:46;11.40;;;5.65;;
82344;SDS011;72653;56.882;60.614;2023-09-18T06:36:12;15.13;;;7.57;;
82344;SDS011;72653;56.882;60.614;2023-09-18T06:38:38;10.80;;;5.93;;
82344;SDS011;72653;56.882;60.614;2023-09-18T06:41:04;11.07;;;5.68;;
82344;SDS011;72653;56.882;60.614;2023-09-18T06:43:29;8.70;;;6.85;;
82344;SDS011;72653;56.882;60.614;2023-09-18T06:45:55;8.15;;;5.63;;
82344;SDS011;72653;56.882;60.614;2023-09-18T06:48:23;11.57;;;5.53;;
82344;SDS011;72653;56.882;60.614;2023-09-18T06:50:49;7.72;;;4.88;;
82344;SDS011;72653;56.882;60.614;2023-09-18T06:53:14;8.23;;;4.88;;
82344;SDS011;72653;56.882;60.614;2023-09-18T06:55:40;11.02;;;6.28;;
82344;SDS011;72653;56.882;60.614;2023-09-18T06:58:06;9.55;;;6.30;;
82344;SDS011;72653;56.882;60.614;2023-09-18T07:00:31;12.40;;;5.65;;
82344;SDS011;72653;56.882;60.614;2023-09-18T07:02:57;11.27;;;6.22;;
82344;SDS011;72653;56.882;60.614;2023-09-18T07:05:23;21.45;;;7.85;;
82344;SDS011;72653;56.882;60.614;2023-09-18T07:07:48;12.10;;;6.90;;
82344;SDS011;72653;56.882;60.614;2023-09-18T07:10:14;19.75;;;6.95;;
82344;SDS011;72653;56.882;60.614;2023-09-18T07:12:40;10.00;;;6.25;;
82344;SDS011;72653;56.882;60.614;2023-09-18T07:15:05;21.08;;;6.90;;
82344;SDS011;72653;56.882;60.614;2023-09-18T07:17:32;9.85;;;6.30;;
82344;SDS011;72653;56.882;60.614;2023-09-18T07:19:58;12.88;;;6.45;;
82344;SDS011;72653;56.882;60.614;2023-09-18T07:22:24;14.25;;;6.20;;
82344;SDS011;72653;56.882;60.614;2023-09-18T07:24:50;12.82;;;7.32;;
82344;SDS011;72653;56.882;60.614;2023-09-18T07:27:15;21.75;;;6.95;;
82344;SDS011;72653;56.882;60.614;2023-09-18T07:29:41;23.13;;;6.63;;
82344;SDS011;72653;56.882;60.614;2023-09-18T07:32:07;12.77;;;6.10;;
82344;SDS011;72653;56.882;60.614;2023-09-18T07:34:34;16.58;;;6.35;;
82344;SDS011;72653;56.882;60.614;2023-09-18T07:37:00;19.70;;;6.50;;
82344;SDS011;72653;56.882;60.614;2023-09-18T07:39:26;23.02;;;6.15;;
82344;SDS011;72653;56.882;60.614;2023-09-18T07:41:52;10.57;;;5.13;;
82344;SDS011;72653;56.882;60.614;2023-09-18T07:44:20;9.05;;;4.85;;
82344;SDS011;72653;56.882;60.614;2023-09-18T07:46:46;9.88;;;5.30;;
82344;SDS011;72653;56.882;60.614;2023-09-18T07:49:12;16.98;;;5.35;;
82344;SDS011;72653;56.882;60.614;2023-09-18T07:51:38;18.55;;;7.20;;
82344;SDS011;72653;56.882;60.614;2023-09-18T07:54:03;14.02;;;5.97;;
82344;SDS011;72653;56.882;60.614;2023-09-18T07:56:29;7.15;;;4.88;;
82344;SDS011;72653;56.882;60.614;2023-09-18T07:58:58;11.77;;;6.53;;
82344;SDS011;72653;56.882;60.614;2023-09-18T08:01:24;10.30;;;5.53;;
82344;SDS011;72653;56.882;60.614;2023-09-18T08:03:50;9.50;;;6.45;;
82344;SDS011;72653;56.882;60.614;2023-09-18T08:06:15;11.55;;;5.55;;
82344;SDS011;72653;56.882;60.614;2023-09-18T08:08:44;11.93;;;5.32;;
82344;SDS011;72653;56.882;60.614;2023-09-18T08:11:09;15.73;;;6.13;;
82344;SDS011;72653;56.882;60.614;2023-09-18T08:13:35;8.52;;;4.93;;
82344;SDS011;72653;56.882;60.614;2023-09-18T08:16:01;10.73;;;5.30;;
82344;SDS011;72653;56.882;60.614;2023-09-18T08:18:27;12.32;;;5.57;;
82344;SDS011;72653;56.882;60.614;2023-09-18T08:20:54;10.40;;;5.22;;
82344;SDS011;72653;56.882;60.614;2023-09-18T08:23:19;21.15;;;6.65;;
82344;SDS011;72653;56.882;60.614;2023-09-18T08:25:45;10.43;;;5.20;;
82344;SDS011;72653;56.882;60.614;2023-09-18T08:28:12;7.05;;;4.50;;
82344;SDS011;72653;56.882;60.614;2023-09-18T08:30:40;8.15;;;5.40;;
82344;SDS011;72653;56.882;60.614;2023-09-18T08:33:06;7.55;;;4.93;;
82344;SDS011;72653;56.882;60.614;2023-09-18T08:35:31;8.70;;;5.22;;
82344;SDS011;72653;56.882;60.614;2023-09-18T08:37:57;9.63;;;5.97;;
82344;SDS011;72653;56.882;60.614;2023-09-18T08:40:23;14.48;;;5.82;;
82344;SDS011;72653;56.882;60.614;2023-09-18T08:42:49;11.25;;;5.80;;
82344;SDS011;72653;56.882;60.614;2023-09-18T08:45:23;8.63;;;5.57;;
82344;SDS011;72653;56.882;60.614;2023-09-18T08:47:51;28.52;;;15.75;;
82344;SDS011;72653;56.882;60.614;2023-09-18T08:50:17;20.10;;;8.27;;
82344;SDS011;72653;56.882;60.614;2023-09-18T08:52:43;7.35;;;4.82;;
82344;SDS011;72653;56.882;60.614;2023-09-18T08:57:36;10.10;;;5.25;;
82344;SDS011;72653;56.882;60.614;2023-09-18T09:00:02;6.63;;;4.60;;
82344;SDS011;72653;56.882;60.614;2023-09-18T09:02:32;10.57;;;6.22;;
82344;SDS011;72653;56.882;60.614;2023-09-18T09:04:58;5.93;;;4.18;;
82344;SDS011;72653;56.882;60.614;2023-09-18T09:07:25;9.70;;;6.13;;
82344;SDS011;72653;56.882;60.614;2023-09-18T09:09:50;14.80;;;6.00;;
82344;SDS011;72653;56.882;60.614;2023-09-18T09:12:17;17.45;;;5.53;;
82344;SDS011;72653;56.882;60.614;2023-09-18T09:15:02;15.32;;;5.50;;
82344;SDS011;72653;56.882;60.614;2023-09-18T09:17:29;9.23;;;4.18;;
82344;SDS011;72653;56.882;60.614;2023-09-18T09:19:55;8.98;;;5.10;;
82344;SDS011;72653;56.882;60.614;2023-09-18T09:22:33;8.20;;;4.57;;
82344;SDS011;72653;56.882;60.614;2023-09-18T09:24:59;9.13;;;4.78;;
82344;SDS011;72653;56.882;60.614;2023-09-18T09:27:25;17.30;;;5.47;;
82344;SDS011;72653;56.882;60.614;2023-09-18T09:30:09;12.20;;;4.60;;
82344;SDS011;72653;56.882;60.614;2023-09-18T09:32:34;9.20;;;4.90;;
82344;SDS011;72653;56.882;60.614;2023-09-18T09:35:00;9.23;;;4.22;;
82344;SDS011;72653;56.882;60.614;2023-09-18T09:37:31;5.25;;;4.57;;
82344;SDS011;72653;56.882;60.614;2023-09-18T09:39:56;10.25;;;4.75;;
82344;SDS011;72653;56.882;60.614;2023-09-18T09:42:24;6.97;;;4.68;;
82344;SDS011;72653;56.882;60.614;2023-09-18T09:45:03;6.70;;;4.40;;
82344;SDS011;72653;56.882;60.614;2023-09-18T09:47:33;9.57;;;5.15;;
82344;SDS011;72653;56.882;60.614;2023-09-18T09:49:59;7.55;;;5.03;;
82344;SDS011;72653;56.882;60.614;2023-09-18T09:52:32;6.85;;;4.68;;
82344;SDS011;72653;56.882;60.614;2023-09-18T09:54:58;7.88;;;5.07;;
82344;SDS011;72653;56.882;60.614;2023-09-18T09:57:24;5.65;;;4.05;;
82344;SDS011;72653;56.882;60.614;2023-09-18T09:59:49;6.40;;;4.15;;
82344;SDS011;72653;56.882;60.614;2023-09-18T10:02:15;4.75;;;4.07;;
82344;SDS011;72653;56.882;60.614;2023-09-18T10:04:45;11.07;;;5.82;;
82344;SDS011;72653;56.882;60.614;2023-09-18T10:07:13;7.70;;;5.32;;
82344;SDS011;72653;56.882;60.614;2023-09-18T10:09:41;6.93;;;4.95;;
82344;SDS011;72653;56.882;60.614;2023-09-18T10:12:11;11.43;;;5.45;;
82344;SDS011;72653;56.882;60.614;2023-09-18T10:14:37;11.63;;;5.10;;
82344;SDS011;72653;56.882;60.614;2023-09-18T10:17:25;6.18;;;3.95;;
82344;SDS011;72653;56.882;60.614;2023-09-18T10:22:36;9.77;;;5.25;;
82344;SDS011;72653;56.882;60.614;2023-09-18T10:25:13;11.63;;;5.85;;
82344;SDS011;72653;56.882;60.614;2023-09-18T10:27:44;8.48;;;4.68;;
82344;SDS011;72653;56.882;60.614;2023-09-18T10:30:10;13.40;;;5.53;;
82344;SDS011;72653;56.882;60.614;2023-09-18T10:32:43;7.05;;;4.80;;
82344;SDS011;72653;56.882;60.614;2023-09-18T10:35:10;9.98;;;5.15;;
82344;SDS011;72653;56.882;60.614;2023-09-18T10:37:38;10.77;;;4.90;;
82344;SDS011;72653;56.882;60.614;2023-09-18T10:40:08;9.00;;;6.45;;
82344;SDS011;72653;56.882;60.614;2023-09-18T10:42:40;6.45;;;4.07;;
82344;SDS011;72653;56.882;60.614;2023-09-18T10:45:09;11.27;;;4.68;;
82344;SDS011;72653;56.882;60.614;2023-09-18T10:47:39;8.85;;;5.30;;
82344;SDS011;72653;56.882;60.614;2023-09-18T10:50:06;8.50;;;4.50;;
82344;SDS011;72653;56.882;60.614;2023-09-18T10:52:33;7.85;;;5.22;;
82344;SDS011;72653;56.882;60.614;2023-09-18T10:55:00;11.23;;;4.20;;
82344;SDS011;72653;56.882;60.614;2023-09-18T10:57:32;13.25;;;5.32;;
82344;SDS011;72653;56.882;60.614;2023-09-18T10:59:58;14.95;;;6.57;;
82344;SDS011;72653;56.882;60.614;2023-09-18T11:02:26;7.63;;;4.53;;
82344;SDS011;72653;56.882;60.614;2023-09-18T11:07:21;6.67;;;4.77;;
82344;SDS011;72653;56.882;60.614;2023-09-18T11:09:47;17.30;;;4.35;;
82344;SDS011;72653;56.882;60.614;2023-09-18T11:12:16;8.00;;;5.53;;
82344;SDS011;72653;56.882;60.614;2023-09-18T11:14:44;11.38;;;4.43;;
82344;SDS011;72653;56.882;60.614;2023-09-18T11:20:46;23.23;;;6.95;;
82344;SDS011;72653;56.882;60.614;2023-09-18T11:22:48;17.73;;;5.15;;
82344;SDS011;72653;56.882;60.614;2023-09-18T11:25:30;29.30;;;5.10;;
82344;SDS011;72653;56.882;60.614;2023-09-18T11:27:56;11.77;;;4.10;;
82344;SDS011;72653;56.882;60.614;2023-09-18T11:30:22;6.53;;;4.88;;
82344;SDS011;72653;56.882;60.614;2023-09-18T11:32:51;7.15;;;4.35;;
82344;SDS011;72653;56.882;60.614;2023-09-18T11:35:18;12.07;;;4.95;;
82344;SDS011;72653;56.882;60.614;2023-09-18T11:37:44;12.88;;;5.35;;
82344;SDS011;72653;56.882;60.614;2023-09-18T11:45:41;11.70;;;5.18;;
82344;SDS011;72653;56.882;60.614;2023-09-18T11:50:33;9.30;;;4.75;;
82344;SDS011;72653;56.882;60.614;2023-09-18T11:53:00;12.75;;;4.80;;
82344;SDS011;72653;56.882;60.614;2023-09-18T11:55:26;17.48;;;5.10;;
82344;SDS011;72653;56.882;60.614;2023-09-18T11:57:52;9.65;;;4.68;;
82344;SDS011;72653;56.882;60.614;2023-09-18T12:00:23;8.00;;;4.13;;
82344;SDS011;72653;56.882;60.614;2023-09-18T12:02:50;15.63;;;4.55;;
82344;SDS011;72653;56.882;60.614;2023-09-18T12:05:18;8.68;;;3.95;;
82344;SDS011;72653;56.882;60.614;2023-09-18T12:07:45;6.90;;;3.70;;
82344;SDS011;72653;56.882;60.614;2023-09-18T12:10:11;12.60;;;4.18;;
82344;SDS011;72653;56.882;60.614;2023-09-18T12:12:37;10.00;;;5.85;;
82344;SDS011;72653;56.882;60.614;2023-09-18T12:15:04;6.93;;;5.45;;
82344;SDS011;72653;56.882;60.614;2023-09-18T12:17:30;7.78;;;5.53;;
82344;SDS011;72653;56.882;60.614;2023-09-18T12:19:55;10.48;;;4.05;;
82344;SDS011;72653;56.882;60.614;2023-09-18T12:22:27;13.52;;;3.95;;
82344;SDS011;72653;56.882;60.614;2023-09-18T12:24:53;11.07;;;3.75;;
82344;SDS011;72653;56.882;60.614;2023-09-18T12:27:39;6.63;;;3.70;;
82344;SDS011;72653;56.882;60.614;2023-09-18T12:30:05;5.45;;;3.00;;
82344;SDS011;72653;56.882;60.614;2023-09-18T12:32:31;7.72;;;3.33;;
82344;SDS011;72653;56.882;60.614;2023-09-18T12:34:57;9.80;;;3.50;;
82344;SDS011;72653;56.882;60.614;2023-09-18T12:37:23;7.55;;;4.15;;
82344;SDS011;72653;56.882;60.614;2023-09-18T12:39:49;4.15;;;3.20;;
82344;SDS011;72653;56.882;60.614;2023-09-18T12:42:20;8.38;;;3.78;;
82344;SDS011;72653;56.882;60.614;2023-09-18T12:44:48;7.22;;;3.60;;
82344;SDS011;72653;56.882;60.614;2023-09-18T12:47:14;5.63;;;3.83;;
82344;SDS011;72653;56.882;60.614;2023-09-18T12:49:40;13.85;;;4.03;;
82344;SDS011;72653;56.882;60.614;2023-09-18T12:52:06;7.18;;;3.80;;
82344;SDS011;72653;56.882;60.614;2023-09-18T12:57:04;6.00;;;3.53;;
82344;SDS011;72653;56.882;60.614;2023-09-18T12:59:31;8.02;;;3.30;;
82344;SDS011;72653;56.882;60.614;2023-09-18T13:01:57;5.50;;;3.50;;
82344;SDS011;72653;56.882;60.614;2023-09-18T13:04:23;5.70;;;3.00;;
82344;SDS011;72653;56.882;60.614;2023-09-18T13:07:02;11.88;;;4.57;;
82344;SDS011;72653;56.882;60.614;2023-09-18T13:09:33;6.90;;;4.05;;
82344;SDS011;72653;56.882;60.614;2023-09-18T13:12:00;8.00;;;3.63;;
82344;SDS011;72653;56.882;60.614;2023-09-18T13:14:26;5.50;;;3.10;;
82344;SDS011;72653;56.882;60.614;2023-09-18T13:16:52;5.72;;;4.07;;
82344;SDS011;72653;56.882;60.614;2023-09-18T13:19:18;7.95;;;3.63;;
82344;SDS011;72653;56.882;60.614;2023-09-18T13:21:53;5.15;;;4.28;;
82344;SDS011;72653;56.882;60.614;2023-09-18T13:24:31;3.97;;;3.03;;
82344;SDS011;72653;56.882;60.614;2023-09-18T13:26:57;14.60;;;4.25;;
82344;SDS011;72653;56.882;60.614;2023-09-18T13:29:24;9.98;;;4.60;;
82344;SDS011;72653;56.882;60.614;2023-09-18T13:31:53;9.38;;;4.93;;
82344;SDS011;72653;56.882;60.614;2023-09-18T13:34:18;5.28;;;3.08;;
82344;SDS011;72653;56.882;60.614;2023-09-18T13:36:45;7.63;;;3.35;;
82344;SDS011;72653;56.882;60.614;2023-09-18T13:39:11;7.57;;;4.25;;
82344;SDS011;72653;56.882;60.614;2023-09-18T13:41:37;8.07;;;3.30;;
82344;SDS011;72653;56.882;60.614;2023-09-18T13:44:03;6.47;;;3.30;;
82344;SDS011;72653;56.882;60.614;2023-09-18T13:46:29;6.93;;;4.90;;
82344;SDS011;72653;56.882;60.614;2023-09-18T13:48:54;7.18;;;4.18;;
82344;SDS011;72653;56.882;60.614;2023-09-18T13:51:20;6.72;;;3.60;;
82344;SDS011;72653;56.882;60.614;2023-09-18T13:53:46;4.25;;;2.97;;
82344;SDS011;72653;56.882;60.614;2023-09-18T13:56:13;4.82;;;2.97;;
82344;SDS011;72653;56.882;60.614;2023-09-18T13:58:39;6.88;;;3.13;;
82344;SDS011;72653;56.882;60.614;2023-09-18T14:01:06;8.13;;;3.13;;
82344;SDS011;72653;56.882;60.614;2023-09-18T14:03:33;5.82;;;3.78;;
82344;SDS011;72653;56.882;60.614;2023-09-18T14:05:58;5.53;;;3.58;;
82344;SDS011;72653;56.882;60.614;2023-09-18T14:08:24;11.75;;;2.80;;
82344;SDS011;72653;56.882;60.614;2023-09-18T14:10:50;6.22;;;3.80;;
82344;SDS011;72653;56.882;60.614;2023-09-18T14:13:16;4.45;;;2.83;;
82344;SDS011;72653;56.882;60.614;2023-09-18T14:15:42;6.97;;;4.15;;
82344;SDS011;72653;56.882;60.614;2023-09-18T14:18:09;5.95;;;2.63;;
82344;SDS011;72653;56.882;60.614;2023-09-18T14:20:35;6.18;;;3.72;;
82344;SDS011;72653;56.882;60.614;2023-09-18T14:23:00;7.05;;;3.67;;
82344;SDS011;72653;56.882;60.614;2023-09-18T14:25:26;7.00;;;3.22;;
82344;SDS011;72653;56.882;60.614;2023-09-18T14:27:52;3.95;;;2.60;;
82344;SDS011;72653;56.882;60.614;2023-09-18T14:30:18;4.72;;;3.78;;
82344;SDS011;72653;56.882;60.614;2023-09-18T14:32:44;5.65;;;3.38;;
82344;SDS011;72653;56.882;60.614;2023-09-18T14:35:11;5.47;;;3.88;;
82344;SDS011;72653;56.882;60.614;2023-09-18T14:37:36;3.47;;;2.33;;
82344;SDS011;72653;56.882;60.614;2023-09-18T14:40:02;10.07;;;4.10;;
82344;SDS011;72653;56.882;60.614;2023-09-18T14:42:28;8.15;;;3.55;;
82344;SDS011;72653;56.882;60.614;2023-09-18T14:44:53;7.63;;;3.70;;
82344;SDS011;72653;56.882;60.614;2023-09-18T14:47:19;4.35;;;2.58;;